Hawaii Aviation Weather2018-05-12T02:28:12+00:00

Hawaii Aviation Weather

Weather Information Updated from 1800wxbrief.com

Please note, all weather information provided should be validated for accuracy before flying. Click on each Blue link for more information.

REAL TIME LOCAL RADAR – Base Reflectivity (10min)
Chance of Rain
Sunday
Chance of Rain
High 77°/Low 63°
50%
Chance of a Thunderstorm
Monday
Chance of a Thunderstorm
High 80°/Low 66°
40%
Chance of Rain
Tuesday
Chance of Rain
High 78°/Low 65°
40%
Clear
Wednesday
Clear
High 81°/Low 66°
10%
Partly Cloudy
Thursday
Partly Cloudy
High 79°/Low 66°
20%
Clear
Friday
Clear
High 79°/Low 65°
10%
Partly Cloudy
Saturday
Partly Cloudy
High 78°/Low 65°
10%

General Forecasts (Prog Charts)
Hawaii Lo-Level Sig Progs

Thunderstorm & Severe Weather Forecast
Hawaii Severe Weather Outlook

General Forecasts (Prog Charts)
NE Pacific Surface Analysis

General Forecasts (Prog Charts)
Hawaii Surface Forecast

Aviation Weather from NOAA

PHNL – Honolulu

Available data for PHNL from the past 2 hours
HONOLULU, HI
Metar
PHNL 171253Z 29003KT 10SM FEW036 SCT120 SCT140 18/17 A2996 RMK AO2 RAE06 SLP146 P0000 T01830167

12:53 UTC

Wind: 290° 3kt

Visibility: 10 SM

Sky: FEW 3600 ft

Temp: 18 deg C / 64.4 deg F

Dewpoint: 17 deg C / 62.6 deg F

Pressure: 29.96 inHg

TAF
PHNL 171120Z 1712/1818 33005KT P6SM VCSH FEW025 BKN045 TEMPO 1712/1714 5SM SHRA BKN025 FM172100 33010KT P6SM VCSH FEW025 SCT045 FM180500 35004KT P6SM FEW025 SCT045

PHJR – Kalealoa (Rogers)

Available data for PHJR from the past 2 hours
KALAELOA, HI
Metar
PHJR 171253Z AUTO 04003KT 10SM CLR 19/17 A2998 RMK AO2 SLP159 T01890167 TSNO

12:53 UTC

Wind: 40° 3kt

Visibility: 10 SM

Sky:

Temp: 19 deg C / 66.2 deg F

Dewpoint: 17 deg C / 62.6 deg F

Pressure: 29.98 inHg

TAF
PHJR 171120Z 1712/1812 01007KT P6SM VCSH FEW025 BKN045 FM172100 29008G15KT P6SM VCSH FEW025 SCT045 FM180300 VRB05KT P6SM FEW025 SCT045 FM180700 02005KT P6SM FEW030 SCT045

PHNG – Kaneohe

Available data for PHNG from the past 2 hours
KANEOHE MCAS, HI
Metar
PHNG 171257Z 01012KT 10SM FEW020 21/ A2995 RMK AO2 SLP135 T0206 $

12:57 UTC

Wind: 10° 12kt

Visibility: 10 SM

Sky: FEW 2000 ft

Temp: 21 deg C / 69.8 deg F

Dewpoint: deg C / 32 deg F

Pressure: 29.95 inHg

TAF
TAF PHNG 1709/1809 35009G16KT 9999 FEW025 SCT045 QNH2992INS TEMPO 1710/1715 VRB06KT 8000 -SHRA BKN025 BKN045 TEMPO 1716/1721 VRB06KT 8000 -SHRA BKN025 FM180000 VRB06KT 9999 FEW030 SCT045 BKN055 QNH2990INS TEMPO 1800/1804 8000 -SHRA BKN025 T19/1713Z T24/1723Z

PHHI – Wheeler

Available data for PHHI from the past 2 hours
WHEELER AFB/OAHU, HI
Metar
PHHI 171256Z AUTO 33008KT 10SM FEW010 18/17 A2996 RMK AO2 SLP140 T01750173 $

12:56 UTC

Wind: 330° 8kt

Visibility: 10 SM

Sky: FEW 1000 ft

Temp: 18 deg C / 64.4 deg F

Dewpoint: 17 deg C / 62.6 deg F

Pressure: 29.96 inHg

Honolulu 3 Day Forecast (Wind, Temp, etc)
HAWAII INFRARED Satellite
HAWAII Visible Satellite
HAWAII National Weather Service Forecast
Please check that this widget Google Reviews has a Google Place ID set.